createdAt,value
2023-01-21T00:00:14.298Z,-1.79
2023-01-21T00:02:43.620Z,-1.78
2023-01-21T00:05:12.808Z,-1.78
2023-01-21T00:07:42.013Z,-1.83
2023-01-21T00:10:11.775Z,-1.84
2023-01-21T00:12:41.207Z,-1.81
2023-01-21T00:15:13.456Z,-1.86
2023-01-21T00:17:44.002Z,-1.87
2023-01-21T00:20:14.076Z,-1.84
2023-01-21T00:22:43.336Z,-1.87
2023-01-21T00:25:12.584Z,-1.87
2023-01-21T00:27:42.082Z,-1.89
2023-01-21T00:30:14.976Z,-1.88
2023-01-21T00:32:44.332Z,-1.90
2023-01-21T00:35:13.512Z,-1.93
2023-01-21T00:37:42.717Z,-1.92
2023-01-21T00:40:12.713Z,-1.93
2023-01-21T00:42:42.301Z,-1.93
2023-01-21T00:45:14.456Z,-1.83
2023-01-21T00:47:43.679Z,-1.89
2023-01-21T00:50:13.886Z,-1.89
2023-01-21T00:52:43.296Z,-1.88
2023-01-21T00:55:12.527Z,-1.94
2023-01-21T00:57:41.728Z,-1.96
2023-01-21T01:00:16.447Z,-1.98
2023-01-21T01:02:46.896Z,-1.84
2023-01-21T01:05:16.585Z,-1.72
2023-01-21T01:07:47.363Z,-1.83
2023-01-21T01:10:16.669Z,-1.88
2023-01-21T01:12:46.253Z,-1.92
2023-01-21T01:15:18.133Z,-1.91
2023-01-21T01:17:47.297Z,-1.93
2023-01-21T01:20:16.673Z,-1.91
2023-01-21T01:22:45.964Z,-1.83
2023-01-21T01:25:15.193Z,-1.68
2023-01-21T01:27:44.404Z,-1.57
2023-01-21T01:30:14.623Z,-1.48
2023-01-21T01:32:46.477Z,-1.33
2023-01-21T01:35:15.641Z,-1.36
2023-01-21T01:37:44.858Z,-1.25
2023-01-21T01:40:14.991Z,-1.25
2023-01-21T01:42:44.346Z,-1.19
2023-01-21T01:45:20.163Z,-1.08
2023-01-21T01:47:58.344Z,-1.07
2023-01-21T01:50:28.677Z,-1.03
2023-01-21T01:52:58.280Z,-1.08
2023-01-21T01:55:27.490Z,-0.98
2023-01-21T01:57:57.627Z,-0.92
2023-01-21T02:00:27.598Z,-0.84
2023-01-21T02:03:12.407Z,-0.77
2023-01-21T02:05:43.744Z,-0.78
2023-01-21T02:08:13.370Z,-0.76
2023-01-21T02:10:42.561Z,-0.76
2023-01-21T02:13:12.382Z,-0.77
2023-01-21T02:15:44.784Z,-0.75
2023-01-21T02:18:20.943Z,-0.76
2023-01-21T02:21:08.098Z,-0.77
2023-01-21T02:23:48.900Z,-0.74
2023-01-21T02:26:42.015Z,-0.72
2023-01-21T02:29:23.141Z,-0.72
2023-01-21T02:32:07.457Z,-0.82
2023-01-21T02:34:43.620Z,-0.87
2023-01-21T02:37:13.749Z,-0.76
2023-01-21T02:39:56.085Z,-0.70
2023-01-21T02:42:27.483Z,-0.71
2023-01-21T02:45:01.586Z,-0.66
2023-01-21T02:47:32.822Z,-0.70
2023-01-21T02:50:07.246Z,-0.64
2023-01-21T02:52:36.457Z,-0.75
2023-01-21T02:55:06.435Z,-0.61
2023-01-21T02:57:41.073Z,-0.56
2023-01-21T03:00:12.641Z,-0.61
2023-01-21T03:02:56.771Z,-0.67
2023-01-21T03:05:34.323Z,-0.68
2023-01-21T03:08:09.439Z,-0.52
2023-01-21T03:10:42.040Z,-0.65
2023-01-21T03:13:15.801Z,-0.54
2023-01-21T03:16:00.800Z,-0.37
2023-01-21T03:18:32.526Z,-0.40
2023-01-21T03:21:06.433Z,-0.40
2023-01-21T03:23:38.756Z,-0.30
2023-01-21T03:26:10.206Z,-0.31
2023-01-21T03:28:42.469Z,-0.30
2023-01-21T03:31:13.483Z,-0.21
2023-01-21T03:33:49.107Z,-0.18
2023-01-21T03:36:24.117Z,-0.11
2023-01-21T03:38:55.631Z,-0.14
2023-01-21T03:41:26.790Z,-0.10
2023-01-21T03:43:58.458Z,-0.16
2023-01-21T03:46:30.040Z,-0.11
2023-01-21T03:49:01.375Z,-0.05
2023-01-21T03:51:35.965Z,-0.05
2023-01-21T03:54:05.390Z,-0.09
2023-01-21T03:56:34.722Z,-0.09
2023-01-21T03:59:03.977Z,-0.02
2023-01-21T04:01:33.300Z,0.04
2023-01-21T04:04:02.508Z,0.00
2023-01-21T04:06:36.820Z,0.06
2023-01-21T04:09:06.229Z,0.12
2023-01-21T04:11:35.514Z,0.16
2023-01-21T04:14:04.830Z,0.22
2023-01-21T04:16:34.134Z,0.08
2023-01-21T04:19:03.467Z,0.10
2023-01-21T04:21:35.312Z,0.24
2023-01-21T04:24:04.640Z,0.20
2023-01-21T04:26:33.950Z,0.27
2023-01-21T04:29:03.308Z,0.29
2023-01-21T04:31:32.563Z,0.31
2023-01-21T04:34:01.810Z,0.31
2023-01-21T04:36:31.075Z,0.24
2023-01-21T04:39:02.968Z,0.27
2023-01-21T04:41:32.301Z,0.15
2023-01-21T04:44:01.520Z,0.15
2023-01-21T04:46:30.757Z,0.23
2023-01-21T04:49:00.050Z,0.16
2023-01-21T04:51:29.376Z,0.22
2023-01-21T04:53:58.631Z,0.25
2023-01-21T04:56:30.485Z,0.27
2023-01-21T04:58:59.799Z,0.25
2023-01-21T05:01:29.114Z,0.19
2023-01-21T05:03:58.376Z,0.28
2023-01-21T05:06:27.676Z,0.20
2023-01-21T05:08:56.945Z,0.27
2023-01-21T05:11:26.251Z,0.32
2023-01-21T05:13:58.065Z,0.34
2023-01-21T05:16:27.450Z,0.30
2023-01-21T05:18:57.049Z,0.26
2023-01-21T05:21:26.316Z,0.21
2023-01-21T05:23:55.589Z,0.13
2023-01-21T05:26:24.815Z,0.21
2023-01-21T05:28:54.032Z,0.16
2023-01-21T05:31:25.913Z,0.23
2023-01-21T05:33:55.172Z,0.20
2023-01-21T05:36:24.399Z,0.22
2023-01-21T05:38:53.656Z,0.13
2023-01-21T05:41:22.933Z,0.20
2023-01-21T05:43:52.131Z,0.19
2023-01-21T05:46:21.449Z,0.23
2023-01-21T05:48:53.372Z,0.27
2023-01-21T05:51:22.691Z,0.21
2023-01-21T05:53:52.014Z,0.21
2023-01-21T05:56:21.276Z,0.26
2023-01-21T05:58:50.515Z,0.26
2023-01-21T06:01:19.796Z,0.28
2023-01-21T06:03:49.045Z,0.32
2023-01-21T06:06:20.862Z,0.34
2023-01-21T06:08:50.095Z,0.31
2023-01-21T06:11:19.402Z,0.34
2023-01-21T06:13:48.661Z,0.26
2023-01-21T06:16:17.917Z,0.30
2023-01-21T06:18:47.223Z,0.31
2023-01-21T06:21:16.448Z,0.28
2023-01-21T06:23:48.312Z,0.37
2023-01-21T06:26:17.528Z,0.34
2023-01-21T06:28:46.804Z,0.38
2023-01-21T06:31:16.144Z,0.36
2023-01-21T06:33:45.384Z,0.35
2023-01-21T06:36:14.612Z,0.36
2023-01-21T06:38:43.837Z,0.32
2023-01-21T06:41:15.648Z,0.31
2023-01-21T06:43:45.207Z,0.29
2023-01-21T06:46:14.595Z,0.29
2023-01-21T06:48:44.284Z,0.24
2023-01-21T06:51:13.558Z,0.22
2023-01-21T06:53:42.822Z,0.17
2023-01-21T06:56:12.080Z,0.21
2023-01-21T06:58:43.890Z,0.21
2023-01-21T07:01:13.144Z,0.21
2023-01-21T07:03:42.398Z,0.23
2023-01-21T07:06:11.641Z,0.12
2023-01-21T07:08:40.943Z,0.16
2023-01-21T07:11:10.199Z,0.13
2023-01-21T07:13:39.523Z,0.22
2023-01-21T07:16:11.793Z,0.20
2023-01-21T07:18:41.053Z,0.18
2023-01-21T07:21:10.217Z,0.17
2023-01-21T07:23:39.472Z,0.11
2023-01-21T07:26:09.014Z,0.10
2023-01-21T07:28:38.284Z,0.14
2023-01-21T07:31:08.779Z,0.21
2023-01-21T07:33:40.705Z,0.20
2023-01-21T07:36:10.280Z,0.08
2023-01-21T07:38:39.563Z,0.10
2023-01-21T07:41:08.816Z,0.06
2023-01-21T07:43:38.133Z,0.17
2023-01-21T07:46:07.519Z,0.19
2023-01-21T07:48:36.938Z,0.17
2023-01-21T07:51:08.933Z,0.13
2023-01-21T07:53:38.270Z,0.21
2023-01-21T07:56:08.081Z,0.16
2023-01-21T07:58:37.296Z,0.18
2023-01-21T08:01:07.909Z,0.07
2023-01-21T08:03:37.430Z,0.17
2023-01-21T08:06:09.868Z,0.24
2023-01-21T08:08:39.124Z,0.28
2023-01-21T08:11:08.366Z,0.31
2023-01-21T08:13:37.594Z,0.33
2023-01-21T08:16:07.333Z,0.25
2023-01-21T08:18:36.573Z,0.29
2023-01-21T08:21:05.998Z,0.35
2023-01-21T08:23:37.813Z,0.33
2023-01-21T08:33:06.566Z,0.36
2023-01-21T08:35:35.910Z,0.37
2023-01-21T08:38:05.602Z,0.37
2023-01-21T08:40:37.477Z,0.48
2023-01-21T08:50:24.324Z,0.27
2023-01-21T08:52:54.398Z,0.33
2023-01-21T08:55:25.330Z,0.34
2023-01-21T08:57:58.470Z,0.42
2023-01-21T09:04:28.983Z,0.60
2023-01-21T09:06:58.292Z,0.64
2023-01-21T09:09:27.517Z,0.57
2023-01-21T09:12:00.153Z,0.59
2023-01-21T09:14:32.042Z,0.62
2023-01-21T09:17:01.282Z,0.58
2023-01-21T09:19:30.501Z,0.63
2023-01-21T09:25:29.252Z,0.65
2023-01-21T09:31:31.822Z,0.72
2023-01-21T09:34:02.384Z,0.68
2023-01-21T09:36:32.680Z,0.53
2023-01-21T09:39:02.408Z,0.50
2023-01-21T09:41:33.158Z,0.64
2023-01-21T09:44:05.926Z,0.83
2023-01-21T09:50:10.434Z,0.78
2023-01-21T09:52:42.223Z,0.57
2023-01-21T09:55:17.611Z,0.79
2023-01-21T09:58:04.962Z,0.63
2023-01-21T10:00:36.556Z,0.93
2023-01-21T10:03:13.723Z,1.05
2023-01-21T10:06:00.585Z,0.98
2023-01-21T10:08:40.469Z,1.00
2023-01-21T10:11:18.838Z,1.18
2023-01-21T10:14:00.095Z,1.00
2023-01-21T10:16:34.013Z,1.03
2023-01-21T10:19:04.070Z,1.09
2023-01-21T10:21:38.431Z,1.18
2023-01-21T10:24:12.232Z,1.17
2023-01-21T10:26:41.447Z,1.27
2023-01-21T10:29:14.957Z,1.23
2023-01-21T10:31:46.685Z,1.34
2023-01-21T10:34:16.880Z,1.23
2023-01-21T10:36:52.813Z,1.44
2023-01-21T10:39:27.671Z,1.45
2023-01-21T10:42:06.610Z,1.56
2023-01-21T10:44:40.743Z,1.67
2023-01-21T10:47:15.069Z,1.39
2023-01-21T10:50:02.315Z,1.64
2023-01-21T10:52:38.841Z,1.62
2023-01-21T10:55:16.212Z,1.67
2023-01-21T10:57:52.699Z,1.61
2023-01-21T11:00:24.607Z,1.79
2023-01-21T11:16:48.703Z,1.92
2023-01-21T11:19:19.454Z,1.94
2023-01-21T11:22:00.511Z,1.98
2023-01-21T11:24:30.327Z,2.05
2023-01-21T11:27:01.638Z,1.94
2023-01-21T11:29:41.474Z,1.82
2023-01-21T11:32:19.241Z,1.99
2023-01-21T11:34:48.887Z,2.03
2023-01-21T11:37:24.455Z,1.92
2023-01-21T11:39:54.793Z,1.89
2023-01-21T11:42:24.477Z,1.92
2023-01-21T11:44:54.712Z,1.90
2023-01-21T11:47:38.426Z,1.90
2023-01-21T11:50:15.426Z,1.97
2023-01-21T11:52:44.830Z,1.94
2023-01-21T11:55:20.772Z,1.96
2023-01-21T11:57:53.206Z,1.93
2023-01-21T12:00:23.732Z,1.92
2023-01-21T12:02:58.487Z,2.06
2023-01-21T12:05:30.489Z,1.93
2023-01-21T12:08:00.194Z,2.12
2023-01-21T12:10:33.386Z,2.11
2023-01-21T12:13:23.644Z,2.18
2023-01-21T12:16:03.883Z,2.14
2023-01-21T12:18:43.226Z,2.32
2023-01-21T12:21:16.024Z,2.23
2023-01-21T12:23:52.799Z,2.43
2023-01-21T12:26:34.174Z,2.65
2023-01-21T12:29:24.449Z,2.61
2023-01-21T12:31:56.316Z,2.55
2023-01-21T12:34:33.757Z,2.51
2023-01-21T12:37:06.161Z,2.46
2023-01-21T12:39:36.995Z,2.45
2023-01-21T12:42:12.401Z,2.53
2023-01-21T12:44:45.802Z,2.47
2023-01-21T12:47:21.457Z,2.70
2023-01-21T12:49:59.979Z,2.86
2023-01-21T12:52:32.740Z,2.69
2023-01-21T12:55:06.900Z,2.58
2023-01-21T12:57:40.704Z,2.53
2023-01-21T13:00:19.768Z,2.43
2023-01-21T13:02:52.203Z,2.29
2023-01-21T13:05:26.142Z,2.41
2023-01-21T13:07:58.556Z,2.78
2023-01-21T13:10:31.565Z,2.80
2023-01-21T13:13:02.934Z,2.73
2023-01-21T13:15:35.319Z,2.85
2023-01-21T13:18:07.278Z,3.04
2023-01-21T13:20:41.159Z,2.89
2023-01-21T13:23:16.187Z,2.92
2023-01-21T13:25:47.896Z,3.00
2023-01-21T13:28:18.900Z,3.01
2023-01-21T13:30:52.141Z,2.96
2023-01-21T13:33:30.931Z,2.96
2023-01-21T13:36:09.884Z,3.12
2023-01-21T13:38:44.818Z,2.89
2023-01-21T13:41:26.875Z,3.21
2023-01-21T13:44:01.799Z,2.98
2023-01-21T13:46:39.475Z,3.19
2023-01-21T13:49:18.026Z,3.07
2023-01-21T13:51:57.122Z,3.08
2023-01-21T13:54:32.272Z,2.72
2023-01-21T13:57:09.999Z,2.91
2023-01-21T13:59:40.783Z,2.72
2023-01-21T14:02:13.962Z,2.78
2023-01-21T14:04:45.867Z,2.79
2023-01-21T14:07:21.062Z,2.78
2023-01-21T14:09:54.747Z,2.60
2023-01-21T14:12:32.281Z,2.67
2023-01-21T14:15:09.676Z,2.78
2023-01-21T14:17:50.300Z,2.64
2023-01-21T14:20:28.131Z,2.69
2023-01-21T14:23:06.108Z,2.47
2023-01-21T14:25:46.847Z,2.65
2023-01-21T14:28:20.732Z,2.69
2023-01-21T14:30:52.193Z,2.72
2023-01-21T14:33:23.469Z,2.57
2023-01-21T14:35:57.093Z,2.63
2023-01-21T14:38:34.688Z,2.45
2023-01-21T14:41:07.610Z,2.51
2023-01-21T14:43:50.521Z,2.37
2023-01-21T14:46:27.495Z,2.36
2023-01-21T14:49:00.967Z,2.10
2023-01-21T14:51:31.807Z,2.14
2023-01-21T14:54:04.782Z,2.21
2023-01-21T14:56:35.486Z,2.05
2023-01-21T14:59:08.241Z,1.91
2023-01-21T15:01:40.794Z,1.93
2023-01-21T15:04:20.007Z,2.01
2023-01-21T15:06:49.661Z,1.91
2023-01-21T15:09:25.710Z,1.94
2023-01-21T15:11:58.140Z,1.85
2023-01-21T15:14:29.073Z,1.90
2023-01-21T15:16:58.406Z,1.79
2023-01-21T15:19:32.179Z,1.92
2023-01-21T15:22:19.397Z,1.74
2023-01-21T15:25:03.649Z,1.79
2023-01-21T15:27:35.532Z,1.72
2023-01-21T15:30:28.435Z,1.80
2023-01-21T15:32:59.289Z,1.85
2023-01-21T15:35:33.701Z,1.81
2023-01-21T15:38:04.030Z,1.74
2023-01-21T15:40:39.336Z,1.68
2023-01-21T15:43:17.347Z,1.79
2023-01-21T15:45:52.261Z,1.74
2023-01-21T15:48:41.799Z,1.70
2023-01-21T15:51:20.521Z,1.66
2023-01-21T15:53:57.741Z,1.64
2023-01-21T15:56:42.588Z,1.64
2023-01-21T15:59:21.823Z,1.64
2023-01-21T16:02:04.297Z,1.59
2023-01-21T16:04:37.117Z,1.61
2023-01-21T16:07:16.756Z,1.60
2023-01-21T16:09:53.891Z,1.59
2023-01-21T16:12:25.790Z,1.58
2023-01-21T16:15:03.580Z,1.57
2023-01-21T16:17:39.361Z,1.61
2023-01-21T16:20:11.239Z,1.71
2023-01-21T16:22:42.790Z,1.61
2023-01-21T16:25:13.765Z,1.61
2023-01-21T16:27:47.680Z,1.62
2023-01-21T16:30:22.799Z,1.55
2023-01-21T16:33:06.858Z,1.55
2023-01-21T16:35:43.839Z,1.58
2023-01-21T16:38:16.465Z,1.63
2023-01-21T16:40:45.692Z,1.62
2023-01-21T16:43:18.023Z,1.62
2023-01-21T16:45:53.707Z,1.67
2023-01-21T16:48:24.650Z,1.67
2023-01-21T16:50:54.759Z,1.60
2023-01-21T16:53:24.668Z,1.61
2023-01-21T16:55:55.165Z,1.57
2023-01-21T16:58:27.155Z,1.52
2023-01-21T17:01:12.070Z,1.58
2023-01-21T17:03:41.463Z,1.56
2023-01-21T17:06:13.662Z,1.53
2023-01-21T17:08:43.146Z,1.58
2023-01-21T17:11:13.795Z,1.70
2023-01-21T17:13:44.541Z,1.53
2023-01-21T17:16:29.459Z,1.59
2023-01-21T17:19:00.746Z,1.54
2023-01-21T17:21:33.152Z,1.50
2023-01-21T17:24:03.529Z,1.57
2023-01-21T17:26:34.467Z,1.47
2023-01-21T17:29:11.325Z,1.53
2023-01-21T17:31:45.022Z,1.54
2023-01-21T17:34:24.900Z,1.54
2023-01-21T17:36:55.391Z,1.66
2023-01-21T17:39:39.916Z,1.56
2023-01-21T17:42:14.800Z,1.56
2023-01-21T17:44:47.885Z,1.53
2023-01-21T17:47:24.649Z,1.52
2023-01-21T17:49:58.651Z,1.55
2023-01-21T17:52:28.102Z,1.58
2023-01-21T17:55:12.226Z,1.55
2023-01-21T17:57:41.402Z,1.50
2023-01-21T18:00:34.903Z,1.58
2023-01-21T18:03:06.914Z,1.53
2023-01-21T18:05:38.274Z,1.46
2023-01-21T18:08:13.457Z,1.45
2023-01-21T18:10:43.133Z,1.53
2023-01-21T18:13:13.790Z,1.42
2023-01-21T18:15:44.081Z,1.54
2023-01-21T18:18:19.282Z,1.58
2023-01-21T18:20:49.168Z,1.44
2023-01-21T18:23:18.855Z,1.57
2023-01-21T18:25:49.087Z,1.55
2023-01-21T18:28:20.301Z,1.66
2023-01-21T18:30:49.891Z,1.60
2023-01-21T18:33:21.752Z,1.69
2023-01-21T18:35:52.111Z,1.63
2023-01-21T18:38:26.950Z,1.72
2023-01-21T18:40:56.809Z,1.67
2023-01-21T18:43:26.244Z,1.62
2023-01-21T18:45:55.473Z,1.69
2023-01-21T18:48:30.507Z,1.70
2023-01-21T18:50:59.983Z,1.70
2023-01-21T18:53:29.447Z,1.71
2023-01-21T18:55:58.812Z,1.60
2023-01-21T18:58:28.077Z,1.60
2023-01-21T19:00:57.312Z,1.76
2023-01-21T19:03:29.171Z,1.73
2023-01-21T19:05:58.424Z,1.76
2023-01-21T19:08:28.575Z,1.80
2023-01-21T19:10:57.868Z,1.72
2023-01-21T19:13:27.155Z,1.76
2023-01-21T19:15:57.729Z,1.72
2023-01-21T19:18:30.752Z,1.68
2023-01-21T19:20:59.990Z,1.62
2023-01-21T19:23:29.216Z,1.73
2023-01-21T19:25:59.369Z,1.73
2023-01-21T19:28:28.627Z,1.75
2023-01-21T19:30:58.477Z,1.63
2023-01-21T19:33:28.105Z,1.69
2023-01-21T19:36:01.976Z,1.60
2023-01-21T19:38:31.273Z,1.59
2023-01-21T19:41:00.577Z,1.67
2023-01-21T19:43:29.909Z,1.75
2023-01-21T19:46:00.499Z,1.71
2023-01-21T19:48:30.105Z,1.72
2023-01-21T19:51:01.968Z,1.67
2023-01-21T19:53:31.202Z,1.60
2023-01-21T19:56:01.142Z,1.64
2023-01-21T19:58:31.498Z,1.67
2023-01-21T20:01:00.755Z,1.52
2023-01-21T20:03:30.676Z,1.67
2023-01-21T20:06:04.161Z,1.72
2023-01-21T20:08:34.092Z,1.75
2023-01-21T20:11:03.307Z,1.76
2023-01-21T20:13:36.563Z,1.76
2023-01-21T20:16:13.387Z,1.74
2023-01-21T20:18:43.091Z,1.76
2023-01-21T20:21:14.895Z,1.70
2023-01-21T20:23:44.312Z,1.75
2023-01-21T20:26:15.410Z,1.74
2023-01-21T20:28:50.310Z,1.72
2023-01-21T20:31:19.714Z,1.78
2023-01-21T20:33:49.086Z,1.68
2023-01-21T20:36:22.918Z,1.75
2023-01-21T20:38:52.232Z,1.63
2023-01-21T20:41:21.653Z,1.66
2023-01-21T20:43:50.824Z,1.55
2023-01-21T20:46:21.521Z,1.58
2023-01-21T20:48:51.950Z,1.54
2023-01-21T20:51:24.254Z,1.54
2023-01-21T20:53:54.285Z,1.59
2023-01-21T20:56:24.964Z,1.62
2023-01-21T20:58:54.542Z,1.50
2023-01-21T21:01:25.369Z,1.54
2023-01-21T21:03:55.173Z,1.59
2023-01-21T21:06:28.757Z,1.63
2023-01-21T21:08:58.308Z,1.64
2023-01-21T21:11:28.098Z,1.61
2023-01-21T21:13:57.599Z,1.60
2023-01-21T21:16:30.024Z,1.61
2023-01-21T21:19:00.759Z,1.53
2023-01-21T21:21:32.962Z,1.55
2023-01-21T21:24:06.478Z,1.51
2023-01-21T21:26:37.536Z,1.52
2023-01-21T21:29:07.044Z,1.47
2023-01-21T21:31:36.805Z,1.45
2023-01-21T21:34:06.467Z,1.45
2023-01-21T21:36:38.702Z,1.41
2023-01-21T21:39:08.327Z,1.52
2023-01-21T21:41:50.341Z,1.54
2023-01-21T21:44:20.032Z,1.43
2023-01-21T21:47:07.818Z,1.50
2023-01-21T21:49:37.595Z,1.50
2023-01-21T21:52:09.668Z,1.48
2023-01-21T21:54:38.896Z,1.51
2023-01-21T21:57:08.103Z,1.57
2023-01-21T21:59:37.330Z,1.53
2023-01-21T22:02:06.981Z,1.56
2023-01-21T22:04:36.138Z,1.54
2023-01-21T22:07:05.377Z,1.53
2023-01-21T22:09:37.224Z,1.56
2023-01-21T22:12:06.710Z,1.48
2023-01-21T22:14:35.928Z,1.45
2023-01-21T22:17:05.099Z,1.42
2023-01-21T22:19:36.273Z,1.30
2023-01-21T22:22:06.882Z,1.21
2023-01-21T22:24:38.679Z,1.24
2023-01-21T22:27:08.429Z,1.11
2023-01-21T22:29:37.613Z,1.29
2023-01-21T22:32:07.168Z,1.25
2023-01-21T22:34:36.453Z,1.27
2023-01-21T22:37:05.706Z,1.25
2023-01-21T22:39:34.901Z,1.11
2023-01-21T22:42:06.739Z,1.09
2023-01-21T22:44:35.981Z,1.19
2023-01-21T22:47:05.197Z,1.16
2023-01-21T22:49:34.389Z,1.11
2023-01-21T22:52:03.606Z,1.16
2023-01-21T22:54:32.786Z,1.06
2023-01-21T22:57:02.008Z,1.11
2023-01-21T22:59:34.098Z,1.03
2023-01-21T23:02:03.405Z,1.10
2023-01-21T23:04:32.583Z,1.05
2023-01-21T23:07:01.815Z,1.05
2023-01-21T23:09:31.136Z,1.09
2023-01-21T23:12:00.360Z,1.08
2023-01-21T23:14:29.601Z,1.06
2023-01-21T23:17:01.548Z,1.01
2023-01-21T23:19:30.844Z,0.94
2023-01-21T23:22:00.100Z,0.90
2023-01-21T23:24:29.397Z,0.92
2023-01-21T23:26:58.660Z,1.01
2023-01-21T23:29:28.027Z,0.90
2023-01-21T23:31:57.493Z,1.01
2023-01-21T23:34:29.524Z,0.73
2023-01-21T23:36:58.750Z,0.90
2023-01-21T23:39:28.029Z,0.92
2023-01-21T23:41:57.571Z,0.98
2023-01-21T23:44:26.839Z,0.92
2023-01-21T23:46:56.035Z,0.89
2023-01-21T23:49:25.322Z,0.83
2023-01-21T23:51:57.142Z,0.73
2023-01-21T23:54:26.467Z,0.88
2023-01-21T23:56:57.575Z,0.84
2023-01-21T23:59:26.913Z,0.90
